Time;durP1;ratioP1;P1;durP2;ratioP2;P2;SDS_P1;SDS_P2;PMS_P1;PMS_P2;Temp;Humidity;BMP_temperature;BMP_pressure;BME280_temperature;BME280_humidity;BME280_pressure;Samples;Min_cycle;Max_cycle;Signal;HPM_P1;HPM_P2
2021/07/30 00:02:23;;;;;;;4.80;2.67;;;17.20;99.90;;;;;;5063390;28;20032;-82
2021/07/30 00:04:49;;;;;;;3.85;2.75;;;16.20;99.90;;;;;;5059521;28;20028;-82
2021/07/30 00:07:15;;;;;;;4.50;3.10;;;16.10;99.90;;;;;;5053454;28;20040;-82
2021/07/30 00:09:40;;;;;;;23.20;9.27;;;16.20;99.90;;;;;;5052169;28;20024;-82
2021/07/30 00:12:06;;;;;;;5.20;3.10;;;16.10;99.90;;;;;;5057142;28;20037;-81
2021/07/30 00:14:32;;;;;;;4.97;2.97;;;16.00;99.90;;;;;;5061236;28;20028;-81
2021/07/30 00:16:58;;;;;;;6.32;3.47;;;16.00;99.90;;;;;;5052476;28;20039;-80
2021/07/30 00:19:24;;;;;;;6.32;3.28;;;15.90;99.90;;;;;;5054765;28;20025;-80
2021/07/30 00:21:50;;;;;;;11.23;4.88;;;15.90;99.90;;;;;;5054387;28;20538;-81
2021/07/30 00:24:16;;;;;;;7.68;3.72;;;15.90;99.90;;;;;;5054154;28;20033;-86
2021/07/30 00:26:41;;;;;;;5.05;2.92;;;16.30;99.90;;;;;;5050961;28;20028;-82
2021/07/30 00:29:07;;;;;;;5.85;2.80;;;16.20;99.90;;;;;;5061853;28;20036;-82
2021/07/30 00:31:33;;;;;;;6.15;3.35;;;;;;;;;;5053757;28;20060;-82
2021/07/30 00:33:59;;;;;;;6.40;2.88;;;15.80;99.90;;;;;;5051772;28;20618;-81
2021/07/30 00:36:24;;;;;;;4.30;2.92;;;15.80;99.90;;;;;;5052210;28;20411;-81
2021/07/30 00:38:50;;;;;;;4.50;2.83;;;15.80;99.90;;;;;;5054655;28;20050;-81
2021/07/30 00:41:16;;;;;;;5.18;2.90;;;15.80;99.90;;;;;;5053849;28;20320;-82
2021/07/30 00:43:41;;;;;;;4.18;2.88;;;16.00;99.90;;;;;;5055639;28;20031;-86
2021/07/30 00:46:07;;;;;;;4.88;2.80;;;15.70;99.90;;;;;;5062248;28;20058;-82
2021/07/30 00:48:33;;;;;;;5.47;3.00;;;15.90;99.90;;;;;;5054193;28;20032;-84
2021/07/30 00:50:59;;;;;;;4.50;2.80;;;15.70;99.90;;;;;;5054106;28;20039;-81
2021/07/30 00:53:26;;;;;;;5.93;3.00;;;17.30;99.90;;;;;;5051261;28;20029;-80
2021/07/30 00:55:53;;;;;;;6.68;3.13;;;15.60;99.90;;;;;;5053681;28;20060;-80
2021/07/30 00:58:20;;;;;;;6.47;3.22;;;15.60;99.90;;;;;;5055026;28;20033;-84
2021/07/30 01:00:45;;;;;;;5.40;3.33;;;15.60;99.90;;;;;;5077912;28;20025;-81
2021/07/30 01:03:11;;;;;;;6.47;3.35;;;15.60;99.90;;;;;;5054992;28;20039;-80
2021/07/30 01:05:37;;;;;;;5.88;3.40;;;15.40;99.90;;;;;;5050311;28;20033;-81
2021/07/30 01:08:03;;;;;;;5.60;2.67;;;15.50;99.90;;;;;;5054505;28;20075;-80
2021/07/30 01:10:30;;;;;;;4.45;3.20;;;15.50;99.90;;;;;;5057981;28;20025;-82
2021/07/30 01:12:56;;;;;;;4.63;2.80;;;16.30;99.90;;;;;;5054503;28;20303;-81
2021/07/30 01:15:23;;;;;;;5.22;2.80;;;15.60;99.90;;;;;;5064465;28;20024;-83
2021/07/30 01:17:49;;;;;;;5.82;3.25;;;15.40;99.90;;;;;;5052851;28;20470;-84
2021/07/30 01:20:15;;;;;;;5.53;3.10;;;15.40;99.90;;;;;;5052896;28;20059;-80
2021/07/30 01:22:53;;;;;;;6.75;3.05;;;15.40;99.90;;;;;;5054541;28;20028;-81
2021/07/30 01:25:20;;;;;;;7.47;3.35;;;15.30;99.90;;;;;;5059439;28;21450;-83
2021/07/30 01:27:46;;;;;;;5.40;2.65;;;15.30;99.90;;;;;;5063897;28;20059;-83
2021/07/30 01:30:17;;;;;;;5.95;2.92;;;15.30;99.90;;;;;;5059972;28;20048;-81
2021/07/30 01:32:43;;;;;;;5.38;2.88;;;15.80;99.90;;;;;;5056490;28;20033;-83
2021/07/30 01:35:09;;;;;;;4.88;2.97;;;15.30;99.90;;;;;;5060049;28;20043;-80
2021/07/30 01:37:35;;;;;;;4.90;2.65;;;15.30;99.90;;;;;;5058900;28;20032;-84
2021/07/30 01:40:02;;;;;;;5.38;3.40;;;15.20;99.90;;;;;;5058222;28;20024;-81
2021/07/30 01:42:28;;;;;;;3.92;2.70;;;15.20;99.90;;;;;;5082127;28;20016;-81
2021/07/30 01:44:54;;;;;;;4.65;2.97;;;15.70;99.90;;;;;;5064019;28;20350;-82
2021/07/30 01:47:20;;;;;;;5.35;3.28;;;15.20;99.90;;;;;;5062219;28;20038;-81
2021/07/30 01:49:47;;;;;;;6.78;3.35;;;15.20;99.90;;;;;;5059464;28;20028;-80
2021/07/30 01:52:13;;;;;;;4.47;2.92;;;15.20;99.90;;;;;;5057848;28;20691;-80
2021/07/30 01:54:39;;;;;;;7.25;3.33;;;15.10;99.90;;;;;;5064261;28;20029;-79
2021/07/30 01:57:05;;;;;;;4.00;2.88;;;15.30;99.90;;;;;;5060920;28;20067;-80
2021/07/30 01:59:30;;;;;;;6.22;2.97;;;15.10;99.90;;;;;;5058431;28;20061;-80
2021/07/30 02:01:56;;;;;;;6.20;2.83;;;15.10;99.90;;;;;;5066025;28;20033;-79
2021/07/30 02:04:22;;;;;;;7.80;3.00;;;15.40;99.90;;;;;;5056381;28;21597;-81
2021/07/30 02:06:47;;;;;;;4.70;3.10;;;15.10;99.90;;;;;;5053755;28;20033;-82
2021/07/30 02:09:13;;;;;;;4.82;3.03;;;15.10;99.90;;;;;;5056975;28;20102;-81
2021/07/30 02:11:43;;;;;;;4.45;3.03;;;15.00;99.90;;;;;;5061571;28;21108;-83
2021/07/30 02:14:15;;;;;;;6.73;3.10;;;15.00;99.90;;;;;;5062504;28;20486;-85
2021/07/30 02:16:43;;;;;;;4.93;2.83;;;14.90;99.90;;;;;;5062916;28;20028;-81
2021/07/30 02:19:09;;;;;;;4.60;2.85;;;15.00;99.90;;;;;;5053077;28;20474;-83
2021/07/30 02:21:34;;;;;;;5.72;2.90;;;16.70;99.90;;;;;;5052161;28;20247;-84
2021/07/30 02:24:00;;;;;;;5.35;2.90;;;14.90;99.90;;;;;;5059383;28;21253;-81
2021/07/30 02:26:26;;;;;;;4.80;2.72;;;15.00;99.90;;;;;;5056474;28;20086;-86
2021/07/30 02:28:54;;;;;;;5.53;2.88;;;14.90;99.90;;;;;;5056847;28;20032;-83
2021/07/30 02:31:20;;;;;;;6.55;3.17;;;14.80;99.90;;;;;;5059311;28;20553;-80
2021/07/30 02:33:45;;;;;;;5.63;3.20;;;14.80;99.90;;;;;;5083019;28;20028;-79
2021/07/30 02:36:11;;;;;;;6.63;3.03;;;14.70;99.90;;;;;;5054912;28;20135;-85
2021/07/30 02:38:36;;;;;;;6.30;3.15;;;14.70;99.90;;;;;;5056050;28;20044;-83
2021/07/30 02:41:02;;;;;;;4.65;2.90;;;14.60;99.90;;;;;;5059328;28;20825;-81
2021/07/30 02:43:28;;;;;;;4.53;2.75;;;15.30;99.90;;;;;;5056389;28;20088;-83
2021/07/30 02:45:53;;;;;;;4.93;2.83;;;15.30;99.90;;;;;;5056596;28;20028;-81
2021/07/30 02:48:19;;;;;;;7.55;2.90;;;14.70;99.90;;;;;;5061936;28;20086;-81
2021/07/30 02:50:44;;;;;;;5.18;3.05;;;15.00;99.90;;;;;;5056321;28;20033;-82
2021/07/30 02:53:10;;;;;;;7.35;3.00;;;14.60;99.90;;;;;;5057670;28;20032;-81
2021/07/30 02:55:36;;;;;;;10.38;2.97;;;14.60;99.90;;;;;;5054355;28;20039;-81
2021/07/30 02:58:01;;;;;;;5.00;3.10;;;14.50;99.90;;;;;;5055155;28;20052;-81
2021/07/30 03:00:27;;;;;;;5.57;3.00;;;14.50;99.90;;;;;;5052223;28;20110;-80
2021/07/30 03:02:52;;;;;;;5.25;2.92;;;14.50;99.90;;;;;;5057197;28;20655;-81
2021/07/30 03:05:18;;;;;;;5.47;2.80;;;14.50;99.90;;;;;;5056499;28;20029;-80
2021/07/30 03:07:44;;;;;;;4.32;3.20;;;14.50;99.90;;;;;;5047246;28;20057;-80
2021/07/30 03:10:09;;;;;;;7.07;3.13;;;14.80;99.90;;;;;;5066708;28;20040;-81
2021/07/30 03:12:36;;;;;;;5.65;2.80;;;14.50;99.90;;;;;;5066610;28;20051;-80
2021/07/30 03:15:03;;;;;;;7.03;2.80;;;15.40;99.90;;;;;;5070087;28;20548;-81
2021/07/30 03:17:28;;;;;;;6.32;3.25;;;15.20;99.90;;;;;;5071987;28;20024;-80
2021/07/30 03:19:54;;;;;;;5.55;3.25;;;14.40;99.90;;;;;;5067845;28;20485;-81
2021/07/30 03:22:19;;;;;;;5.93;3.10;;;14.40;99.90;;;;;;5072936;28;20024;-82
2021/07/30 03:24:48;;;;;;;5.82;2.95;;;14.50;99.90;;;;;;5072571;28;20489;-80
2021/07/30 03:27:13;;;;;;;4.47;2.90;;;14.40;99.90;;;;;;5076772;28;20025;-79
2021/07/30 03:29:39;;;;;;;5.70;3.22;;;14.40;99.90;;;;;;5065885;28;20513;-81
2021/07/30 03:32:05;;;;;;;6.05;3.00;;;14.40;99.90;;;;;;5071253;28;20032;-80
2021/07/30 03:34:33;;;;;;;6.28;3.38;;;14.40;99.90;;;;;;5060622;28;20055;-80
2021/07/30 03:37:00;;;;;;;6.63;3.10;;;14.40;99.90;;;;;;5075787;28;20412;-80
2021/07/30 03:39:26;;;;;;;4.75;3.13;;;14.80;99.90;;;;;;5068929;28;20459;-81
2021/07/30 03:41:52;;;;;;;5.53;2.80;;;15.10;99.90;;;;;;5063986;28;20029;-81
2021/07/30 03:44:17;;;;;;;7.88;3.63;;;14.60;99.90;;;;;;5073772;28;20032;-81
2021/07/30 03:46:43;;;;;;;5.30;3.20;;;14.30;99.90;;;;;;5073825;28;20020;-78
2021/07/30 03:49:08;;;;;;;6.53;3.13;;;14.40;99.90;;;;;;5069421;28;20061;-81
2021/07/30 03:51:34;;;;;;;7.68;3.10;;;14.80;99.90;;;;;;5065715;28;20391;-80
2021/07/30 03:54:00;;;;;;;5.13;3.00;;;14.20;99.90;;;;;;5070352;28;20056;-80
2021/07/30 03:56:26;;;;;;;6.72;3.50;;;14.30;99.90;;;;;;5072526;28;20036;-81
2021/07/30 03:58:51;;;;;;;6.25;3.03;;;14.30;99.90;;;;;;5065643;28;20027;-83
2021/07/30 04:01:17;;;;;;;4.75;3.13;;;14.30;99.90;;;;;;5069587;28;20028;-82
2021/07/30 04:03:44;;;;;;;5.13;3.15;;;14.30;99.90;;;;;;5071921;28;20218;-82
2021/07/30 04:06:10;;;;;;;5.82;2.92;;;14.40;99.90;;;;;;5073576;28;20024;-82
2021/07/30 04:08:36;;;;;;;4.95;3.10;;;15.70;99.90;;;;;;5069325;28;20101;-80
2021/07/30 04:11:03;;;;;;;8.05;3.17;;;14.40;99.90;;;;;;5067196;28;20043;-80
2021/07/30 04:13:29;;;;;;;6.00;3.53;;;14.40;99.90;;;;;;5070387;28;20056;-80
2021/07/30 04:16:01;;;;;;;5.75;3.15;;;14.40;99.90;;;;;;5067044;28;20049;-82
2021/07/30 04:18:26;;;;;;;7.60;2.88;;;14.40;99.90;;;;;;5065558;28;20549;-81
2021/07/30 04:20:52;;;;;;;4.45;3.00;;;14.40;99.90;;;;;;5071275;28;20025;-78
2021/07/30 04:23:17;;;;;;;4.55;3.05;;;14.40;99.90;;;;;;5068215;28;20021;-80
2021/07/30 04:25:43;;;;;;;6.97;3.05;;;14.50;99.90;;;;;;5075143;28;20024;-79
2021/07/30 04:28:09;;;;;;;4.50;2.92;;;14.50;99.90;;;;;;5075975;28;20063;-80
2021/07/30 04:30:35;;;;;;;4.78;3.00;;;14.50;99.90;;;;;;5080151;28;20519;-80
2021/07/30 04:33:01;;;;;;;5.82;3.33;;;14.50;99.90;;;;;;5065011;28;20040;-79
2021/07/30 04:35:27;;;;;;;7.25;3.70;;;14.50;99.90;;;;;;5063836;28;20671;-79
2021/07/30 04:37:56;;;;;;;8.32;3.53;;;14.40;99.90;;;;;;5063559;28;20067;-79
2021/07/30 04:40:22;;;;;;;4.28;3.22;;;14.30;99.90;;;;;;5081158;28;20025;-82
2021/07/30 04:42:48;;;;;;;6.15;3.28;;;14.30;99.90;;;;;;5066154;28;20029;-80
2021/07/30 04:45:13;;;;;;;6.65;3.80;;;14.30;99.90;;;;;;5062059;28;20139;-80
2021/07/30 04:47:39;;;;;;;9.07;3.80;;;14.40;99.90;;;;;;5065596;28;20069;-80
2021/07/30 04:50:05;;;;;;;6.70;3.83;;;14.50;99.90;;;;;;5072065;28;20028;-81
2021/07/30 04:52:31;;;;;;;4.88;3.30;;;14.50;99.90;;;;;;5071788;28;20016;-80
2021/07/30 04:54:56;;;;;;;6.35;3.70;;;14.50;99.90;;;;;;5069149;28;20123;-80
2021/07/30 04:57:22;;;;;;;7.70;4.15;;;14.40;99.90;;;;;;5070627;28;20031;-79
2021/07/30 04:59:47;;;;;;;7.97;4.20;;;14.40;99.90;;;;;;5069143;28;20047;-83
2021/07/30 05:02:13;;;;;;;11.38;4.35;;;14.40;99.90;;;;;;5065052;28;20036;-82
2021/07/30 05:04:38;;;;;;;7.97;3.83;;;14.50;99.90;;;;;;5062778;28;20365;-81
2021/07/30 05:07:05;;;;;;;6.63;3.80;;;15.30;99.90;;;;;;5068133;28;20059;-80
2021/07/30 05:09:30;;;;;;;7.20;3.80;;;14.60;99.90;;;;;;5068235;28;20100;-80
2021/07/30 05:11:56;;;;;;;4.97;3.25;;;14.70;99.90;;;;;;5082125;28;20069;-85
2021/07/30 05:14:22;;;;;;;5.32;3.15;;;14.80;99.90;;;;;;5085000;28;20052;-84
2021/07/30 05:16:47;;;;;;;6.90;3.53;;;14.10;99.90;;;;;;5082158;28;20036;-83
2021/07/30 05:19:13;;;;;;;4.78;3.30;;;15.00;99.90;;;;;;5073071;28;20032;-81
2021/07/30 05:21:39;;;;;;;7.35;3.40;;;14.90;99.90;;;;;;5075830;28;20028;-80
2021/07/30 05:24:05;;;;;;;7.60;3.92;;;15.00;99.90;;;;;;5075055;28;20024;-80
2021/07/30 05:26:31;;;;;;;7.43;3.53;;;15.00;99.90;;;;;;5068664;28;20021;-83
2021/07/30 05:28:56;;;;;;;7.65;3.53;;;15.00;99.90;;;;;;5069883;28;20048;-80
2021/07/30 05:31:23;;;;;;;11.82;4.00;;;15.10;99.90;;;;;;5065747;28;20106;-80
2021/07/30 05:33:49;;;;;;;7.75;3.92;;;15.20;99.90;;;;;;5070094;28;20036;-83
2021/07/30 05:36:19;;;;;;;8.02;3.70;;;15.70;99.90;;;;;;5072170;28;20024;-80
2021/07/30 05:38:45;;;;;;;;;;;16.80;99.90;;;;;;5095715;28;20029;-84
2021/07/30 05:41:12;;;;;;;5.80;3.17;;;17.20;99.90;;;;;;5068672;28;19912;-78
2021/07/30 05:43:39;;;;;;;8.55;3.20;;;17.50;99.90;;;;;;5076164;28;20032;-80
2021/07/30 05:46:05;;;;;;;12.25;2.92;;;18.20;99.90;;;;;;5065263;28;20541;-80
2021/07/30 05:48:30;;;;;;;8.27;3.53;;;18.50;99.90;;;;;;5067657;28;20024;-83
2021/07/30 05:50:56;;;;;;;6.13;2.92;;;18.90;99.90;;;;;;5072859;28;20210;-79
2021/07/30 05:53:23;;;;;;;7.30;4.07;;;19.40;99.90;;;;;;5067174;28;20128;-81
2021/07/30 05:55:48;;;;;;;5.95;3.13;;;19.30;99.90;;;;;;5066976;28;20016;-80
2021/07/30 05:58:14;;;;;;;6.82;3.40;;;18.80;99.90;;;;;;5074894;28;20395;-82
2021/07/30 06:00:39;;;;;;;4.60;2.97;;;18.50;99.90;;;;;;5068499;28;20402;-83
2021/07/30 06:03:05;;;;;;;6.80;2.80;;;18.30;99.90;;;;;;5063484;28;20021;-81
2021/07/30 06:05:31;;;;;;;6.53;3.22;;;18.50;99.90;;;;;;5064116;28;20032;-80
2021/07/30 06:08:00;;;;;;;5.63;2.85;;;18.30;99.90;;;;;;5062635;28;20056;-81
2021/07/30 06:10:26;;;;;;;5.85;3.33;;;18.40;99.90;;;;;;5068093;28;20115;-80
2021/07/30 06:12:52;;;;;;;6.43;2.80;;;18.70;99.90;;;;;;5067691;28;20053;-81
2021/07/30 06:15:23;;;;;;;4.97;2.97;;;18.70;99.90;;;;;;5087755;28;20035;-82
2021/07/30 06:17:49;;;;;;;6.57;3.00;;;18.50;99.90;;;;;;5067671;28;20059;-79
2021/07/30 06:20:15;;;;;;;4.60;2.90;;;18.60;99.90;;;;;;5071636;28;20024;-81
2021/07/30 06:22:41;;;;;;;4.60;2.67;;;18.70;99.90;;;;;;5074755;28;20371;-79
2021/07/30 06:25:07;;;;;;;5.10;3.03;;;18.50;99.90;;;;;;5070819;28;20032;-81
2021/07/30 06:27:36;;;;;;;6.93;3.13;;;18.50;99.90;;;;;;5075515;28;20031;-80
2021/07/30 06:30:08;;;;;;;4.88;2.90;;;18.70;99.90;;;;;;5068953;28;20036;-80
2021/07/30 06:32:37;;;;;;;5.97;2.80;;;18.60;99.90;;;;;;5067670;28;20045;-82
2021/07/30 06:35:04;;;;;;;7.18;3.13;;;18.40;99.90;;;;;;5064906;28;20029;-80
2021/07/30 06:37:33;;;;;;;6.63;2.97;;;18.60;99.90;;;;;;5071985;28;20517;-78
2021/07/30 06:40:00;;;;;;;6.25;2.67;;;18.70;99.90;;;;;;5069340;28;20048;-81
2021/07/30 06:42:26;;;;;;;6.90;2.90;;;18.80;99.90;;;;;;5071637;28;20055;-82
2021/07/30 06:44:51;;;;;;;4.07;2.60;;;18.80;99.90;;;;;;5068793;28;20951;-83
2021/07/30 06:47:19;;;;;;;4.90;3.00;;;18.70;99.90;;;;;;5072314;28;20111;-83
2021/07/30 06:49:44;;;;;;;5.10;2.95;;;18.90;99.90;;;;;;5065658;28;20548;-82
2021/07/30 06:52:10;;;;;;;3.88;2.60;;;19.10;99.90;;;;;;5070955;28;20025;-80
2021/07/30 06:54:37;;;;;;;7.32;3.67;;;18.80;99.90;;;;;;5067644;28;20039;-84
2021/07/30 06:57:03;;;;;;;7.50;3.33;;;18.80;99.90;;;;;;5063669;28;20113;-81
2021/07/30 06:59:29;;;;;;;5.57;3.20;;;18.90;99.90;;;;;;5073753;28;20549;-80
2021/07/30 07:01:55;;;;;;;5.63;2.70;;;18.90;99.90;;;;;;5059568;28;20105;-80
2021/07/30 07:04:21;;;;;;;12.38;4.40;;;19.10;99.90;;;;;;5063638;28;20052;-80
2021/07/30 07:06:47;;;;;;;6.53;3.25;;;19.10;99.90;;;;;;5067168;28;20113;-80
2021/07/30 07:09:17;;;;;;;5.40;2.97;;;19.30;99.90;;;;;;5069516;28;20033;-81
2021/07/30 07:11:43;;;;;;;6.53;3.20;;;19.30;99.90;;;;;;5066974;28;20112;-81
2021/07/30 07:14:08;;;;;;;6.45;3.05;;;19.70;99.90;;;;;;5066633;28;20048;-81
2021/07/30 07:16:34;;;;;;;5.13;3.17;;;19.40;99.90;;;;;;5078099;28;20039;-80
2021/07/30 07:19:00;;;;;;;6.70;3.33;;;19.20;99.90;;;;;;5060061;28;20033;-81
2021/07/30 07:21:25;;;;;;;9.23;3.30;;;19.80;99.90;;;;;;5060183;28;20632;-79
2021/07/30 07:23:51;;;;;;;5.80;3.17;;;19.40;99.90;;;;;;5047109;28;20051;-79
2021/07/30 07:26:17;;;;;;;8.85;4.32;;;19.60;99.90;;;;;;5051041;28;21194;-79
2021/07/30 07:28:44;;;;;;;7.97;2.90;;;19.70;99.90;;;;;;5049649;28;20031;-79
2021/07/30 07:31:09;;;;;;;7.03;3.20;;;19.70;99.90;;;;;;5056298;28;20021;-79
2021/07/30 07:33:35;;;;;;;7.07;2.70;;;19.80;99.90;;;;;;5059888;28;20027;-80
2021/07/30 07:36:01;;;;;;;7.55;3.70;;;21.10;99.90;;;;;;5061473;28;20088;-80
2021/07/30 07:38:27;;;;;;;7.55;3.33;;;20.20;99.90;;;;;;5060579;28;20027;-80
2021/07/30 07:40:52;;;;;;;7.72;3.58;;;20.40;99.90;;;;;;5056326;28;20029;-82
2021/07/30 07:43:18;;;;;;;14.40;6.43;;;20.50;99.90;;;;;;5064336;28;20122;-80
2021/07/30 07:45:44;;;;;;;5.80;3.10;;;20.80;99.90;;;;;;5058317;28;20470;-82
2021/07/30 07:48:10;;;;;;;4.93;2.72;;;20.80;99.90;;;;;;5058414;28;20372;-81
2021/07/30 07:50:38;;;;;;;6.60;2.88;;;20.90;99.80;;;;;;5055901;28;20048;-80
2021/07/30 07:53:13;;;;;;;10.88;3.33;;;21.00;99.90;;;;;;5056029;28;20032;-78
2021/07/30 07:55:39;;;;;;;4.10;2.40;;;21.10;99.60;;;;;;5060093;28;20135;-82
2021/07/30 07:58:05;;;;;;;4.03;2.30;;;21.20;99.30;;;;;;5063402;28;20075;-80
2021/07/30 08:00:31;;;;;;;4.93;2.53;;;21.30;98.70;;;;;;5062147;28;20021;-80
2021/07/30 08:02:57;;;;;;;9.73;3.85;;;;;;;;;;5058779;28;20127;-79
2021/07/30 08:05:23;;;;;;;7.82;3.90;;;;;;;;;;5061396;28;20024;-82
2021/07/30 08:07:48;;;;;;;4.88;2.30;;;21.60;98.00;;;;;;5062090;28;20100;-79
2021/07/30 08:10:14;;;;;;;6.22;2.50;;;21.50;97.90;;;;;;5057889;28;20063;-83
2021/07/30 08:12:39;;;;;;;5.18;2.53;;;21.50;98.00;;;;;;5061149;28;20028;-82
2021/07/30 08:15:06;;;;;;;3.67;2.47;;;21.70;97.80;;;;;;5054690;28;20033;-81
2021/07/30 08:17:34;;;;;;;5.68;3.05;;;21.60;97.60;;;;;;5061475;28;20287;-82
2021/07/30 08:20:00;;;;;;;3.60;2.05;;;22.00;96.50;;;;;;5061420;28;20024;-83
2021/07/30 08:22:25;;;;;;;4.10;2.50;;;22.00;95.70;;;;;;5064822;28;20083;-81
2021/07/30 08:24:51;;;;;;;3.50;2.28;;;;;;;;;;5062773;28;20027;-80
2021/07/30 08:27:17;;;;;;;5.13;2.67;;;22.30;94.50;;;;;;5058603;28;20037;-83
2021/07/30 08:29:43;;;;;;;4.05;2.70;;;22.20;94.70;;;;;;5053461;28;20033;-85
2021/07/30 08:32:09;;;;;;;4.68;2.75;;;22.50;94.20;;;;;;5059916;28;20035;-82
2021/07/30 08:34:39;;;;;;;6.07;2.17;;;22.70;93.50;;;;;;5056614;28;20028;-81
2021/07/30 08:37:06;;;;;;;4.63;2.35;;;22.80;93.50;;;;;;5058409;28;20020;-82
2021/07/30 08:39:32;;;;;;;4.70;2.60;;;22.90;93.50;;;;;;5068199;28;20017;-82
2021/07/30 08:41:59;;;;;;;3.45;2.40;;;23.00;92.70;;;;;;5056884;28;20063;-81
2021/07/30 08:44:25;;;;;;;3.50;2.25;;;23.20;91.90;;;;;;5060303;28;20418;-78
2021/07/30 08:46:51;;;;;;;4.65;2.30;;;23.30;91.70;;;;;;5055340;28;20036;-79
2021/07/30 08:49:17;;;;;;;4.75;2.72;;;23.40;91.80;;;;;;5056329;28;20028;-80
2021/07/30 08:51:46;;;;;;;5.68;2.50;;;23.40;91.40;;;;;;5052674;28;20031;-81
2021/07/30 08:54:14;;;;;;;4.57;2.28;;;23.60;90.90;;;;;;5059807;28;20031;-78
2021/07/30 08:56:39;;;;;;;4.47;2.15;;;23.70;90.20;;;;;;5066073;28;20404;-81
2021/07/30 08:59:07;;;;;;;3.88;2.20;;;24.20;90.60;;;;;;5058182;28;20038;-81
2021/07/30 09:01:33;;;;;;;6.30;2.38;;;23.60;90.40;;;;;;5056569;28;20025;-77
2021/07/30 09:03:59;;;;;;;4.90;2.50;;;24.10;90.50;;;;;;5047581;28;20036;-80
2021/07/30 09:06:24;;;;;;;3.95;2.22;;;23.80;89.20;;;;;;5055535;28;20095;-83
2021/07/30 09:09:02;;;;;;;6.88;2.40;;;24.50;90.20;;;;;;5057256;28;20020;-80
2021/07/30 09:11:38;;;;;;;5.60;2.65;;;23.90;90.10;;;;;;5060120;28;20612;-80
2021/07/30 09:14:07;;;;;;;4.35;2.25;;;24.00;89.00;;;;;;5061064;28;20027;-80
2021/07/30 09:16:53;;;;;;;4.43;2.67;;;24.30;89.60;;;;;;5056114;28;20036;-80
2021/07/30 09:19:19;;;;;;;5.25;2.75;;;24.20;87.80;;;;;;5056959;28;20036;-81
2021/07/30 09:21:45;;;;;;;4.07;2.70;;;24.30;86.40;;;;;;5055303;28;20099;-82
2021/07/30 09:24:16;;;;;;;4.90;2.38;;;24.40;86.40;;;;;;5052881;28;20395;-79
2021/07/30 09:26:50;;;;;;;14.40;3.85;;;24.50;87.00;;;;;;5056772;28;20025;-80
2021/07/30 09:29:18;;;;;;;9.25;4.13;;;24.50;85.40;;;;;;5055171;28;20494;-81
2021/07/30 09:31:48;;;;;;;4.78;3.40;;;24.20;85.90;;;;;;5057192;28;20568;-82
2021/07/30 09:34:16;;;;;;;;;;;24.20;85.40;;;;;;5059186;28;20051;-83
2021/07/30 09:37:08;;;;;;;4.43;2.55;;;24.40;86.20;;;;;;5075132;28;19923;-82
2021/07/30 09:39:33;;;;;;;4.22;2.60;;;24.60;85.50;;;;;;5067847;28;20032;-80
2021/07/30 09:42:04;;;;;;;3.58;2.40;;;24.70;84.80;;;;;;5056608;28;20039;-80
2021/07/30 09:44:50;;;;;;;7.38;2.55;;;24.70;85.20;;;;;;5053000;28;20059;-79
2021/07/30 09:47:20;;;;;;;4.55;2.67;;;24.70;84.00;;;;;;5056279;28;20033;-81
2021/07/30 09:49:51;;;;;;;4.07;2.58;;;25.00;84.70;;;;;;5061498;28;20029;-81
2021/07/30 09:52:19;;;;;;;4.80;2.60;;;24.70;84.00;;;;;;5061119;28;20041;-83
2021/07/30 09:54:53;;;;;;;4.68;2.38;;;24.60;84.30;;;;;;5062127;28;20052;-82
2021/07/30 09:57:21;;;;;;;6.20;2.45;;;24.70;83.40;;;;;;5062391;28;20106;-84
2021/07/30 09:59:48;;;;;;;4.70;2.90;;;25.10;83.20;;;;;;5061669;28;20025;-81
2021/07/30 10:02:19;;;;;;;3.60;2.45;;;25.30;82.30;;;;;;5058043;28;20021;-82
2021/07/30 10:04:51;;;;;;;6.90;2.90;;;25.30;81.90;;;;;;5063131;28;20037;-83
2021/07/30 10:07:19;;;;;;;4.72;2.95;;;25.20;81.10;;;;;;5062368;28;20086;-83
2021/07/30 10:09:48;;;;;;;4.10;2.38;;;25.30;80.40;;;;;;5063975;28;20037;-81
2021/07/30 10:12:15;;;;;;;6.10;2.72;;;25.30;80.90;;;;;;5061812;28;20408;-79
2021/07/30 10:14:41;;;;;;;4.03;2.88;;;25.60;80.80;;;;;;5061509;28;20513;-80
2021/07/30 10:17:07;;;;;;;3.95;2.80;;;25.80;80.80;;;;;;5060083;28;20037;-80
2021/07/30 10:19:35;;;;;;;5.15;2.70;;;26.00;79.80;;;;;;5060267;28;20220;-79
2021/07/30 10:22:04;;;;;;;4.35;2.72;;;26.20;79.90;;;;;;5069834;28;20029;-79
2021/07/30 10:24:39;;;;;;;4.35;2.40;;;26.00;77.60;;;;;;5059809;28;20926;-80
2021/07/30 10:27:05;;;;;;;7.22;3.08;;;25.80;77.10;;;;;;5058863;28;20084;-80
2021/07/30 10:30:01;;;;;;;3.63;2.35;;;25.80;77.70;;;;;;5064409;28;20159;-82
2021/07/30 10:32:41;;;;;;;6.05;3.40;;;25.80;78.30;;;;;;5062212;28;20512;-82
2021/07/30 10:35:07;;;;;;;6.60;3.25;;;25.90;77.70;;;;;;5059926;28;20048;-83
2021/07/30 10:37:37;;;;;;;4.20;2.75;;;26.00;77.10;;;;;;5061635;28;20024;-81
2021/07/30 10:40:23;;;;;;;4.22;2.70;;;26.10;76.30;;;;;;5061598;28;20051;-82
2021/07/30 10:42:59;;;;;;;3.83;2.47;;;26.40;74.20;;;;;;5064470;28;20109;-81
2021/07/30 10:45:25;;;;;;;4.53;2.65;;;26.50;75.00;;;;;;5061870;28;20021;-81
2021/07/30 10:48:15;;;;;;;3.83;2.45;;;26.50;73.50;;;;;;5065233;28;20031;-80
2021/07/30 10:50:45;;;;;;;4.25;2.60;;;26.60;73.50;;;;;;5067052;28;20056;-80
2021/07/30 10:53:38;;;;;;;4.53;2.80;;;26.60;71.90;;;;;;5059764;28;20020;-80
2021/07/30 10:56:06;;;;;;;6.93;2.92;;;26.30;73.00;;;;;;5063577;28;20028;-80
2021/07/30 10:58:44;;;;;;;4.18;2.33;;;26.60;73.70;;;;;;5057678;28;20024;-81
2021/07/30 11:01:11;;;;;;;4.47;2.50;;;26.40;73.40;;;;;;5060128;28;20062;-81
2021/07/30 11:03:49;;;;;;;5.05;2.40;;;26.50;72.80;;;;;;5058182;28;20415;-82
2021/07/30 11:06:17;;;;;;;4.70;2.25;;;26.50;71.60;;;;;;5052900;28;20028;-81
2021/07/30 11:09:04;;;;;;;5.00;2.40;;;26.50;72.70;;;;;;5063335;28;20039;-82
2021/07/30 11:11:49;;;;;;;3.80;2.45;;;26.70;72.30;;;;;;5061590;28;20039;-81
2021/07/30 11:14:14;;;;;;;2.95;2.05;;;26.50;71.00;;;;;;5058837;28;20123;-84
2021/07/30 11:16:42;;;;;;;4.82;2.70;;;26.40;72.20;;;;;;5058052;28;20128;-81
2021/07/30 11:19:09;;;;;;;7.72;2.80;;;26.70;72.80;;;;;;5057259;28;20503;-82
2021/07/30 11:21:35;;;;;;;4.13;2.55;;;26.40;71.80;;;;;;5060041;28;20120;-80
2021/07/30 11:24:02;;;;;;;4.93;2.70;;;26.50;71.20;;;;;;5058591;28;20075;-82
2021/07/30 11:26:33;;;;;;;5.25;3.05;;;26.60;70.20;;;;;;5052852;28;20029;-82
2021/07/30 11:29:05;;;;;;;4.43;2.65;;;26.70;70.70;;;;;;5058833;28;20415;-79
2021/07/30 11:31:31;;;;;;;3.78;2.50;;;26.60;71.00;;;;;;5063926;28;20036;-81
2021/07/30 11:33:57;;;;;;;3.65;2.67;;;;;;;;;;5062854;28;20482;-81
2021/07/30 11:36:23;;;;;;;4.88;2.70;;;;;;;;;;5060942;28;20032;-81
2021/07/30 11:38:57;;;;;;;8.20;5.13;;;26.30;71.40;;;;;;5062006;28;20056;-81
2021/07/30 11:41:24;;;;;;;6.72;3.35;;;26.50;71.90;;;;;;5060871;28;20503;-83
2021/07/30 11:44:07;;;;;;;4.10;2.80;;;26.70;71.40;;;;;;5064497;28;20064;-81
2021/07/30 11:46:34;;;;;;;6.82;2.80;;;26.70;71.80;;;;;;5080309;28;20029;-78
2021/07/30 11:49:00;;;;;;;6.22;3.63;;;26.70;70.80;;;;;;5063063;28;20446;-81
2021/07/30 11:51:27;;;;;;;5.45;3.00;;;26.70;71.80;;;;;;5058177;28;20033;-79
2021/07/30 11:53:54;;;;;;;5.55;3.17;;;26.40;70.60;;;;;;5063380;28;20092;-79
2021/07/30 11:56:21;;;;;;;7.40;4.60;;;;;;;;;;5066669;28;20031;-79
2021/07/30 11:59:00;;;;;;;4.28;3.10;;;26.50;70.00;;;;;;5063393;28;20464;-80
2021/07/30 12:01:30;;;;;;;12.88;3.70;;;26.40;70.70;;;;;;5060235;28;20061;-80
2021/07/30 12:04:05;;;;;;;3.72;2.67;;;26.50;71.20;;;;;;5058642;28;20139;-78
2021/07/30 12:06:35;;;;;;;5.13;2.55;;;26.60;71.40;;;;;;5063103;28;21438;-79
2021/07/30 12:09:01;;;;;;;3.97;2.70;;;26.70;70.20;;;;;;5061342;28;20028;-81
2021/07/30 12:11:27;;;;;;;4.50;2.80;;;26.80;70.50;;;;;;5061509;28;20893;-82
2021/07/30 12:13:54;;;;;;;6.93;3.30;;;26.80;70.50;;;;;;5061832;28;20108;-79
2021/07/30 12:16:20;;;;;;;4.85;3.00;;;26.70;70.90;;;;;;5066567;28;20573;-82
2021/07/30 12:18:46;;;;;;;4.32;2.72;;;26.80;70.40;;;;;;5063561;28;20935;-83
2021/07/30 12:21:12;;;;;;;16.88;3.85;;;26.80;70.60;;;;;;5067772;28;20386;-82
2021/07/30 12:23:37;;;;;;;5.05;2.90;;;26.90;70.40;;;;;;5065433;28;20143;-82
2021/07/30 12:26:03;;;;;;;4.38;2.97;;;26.80;70.30;;;;;;5068988;28;20040;-81
2021/07/30 12:28:42;;;;;;;4.43;2.45;;;26.70;71.20;;;;;;5067932;28;20436;-82
2021/07/30 12:31:14;;;;;;;4.90;2.75;;;26.60;71.30;;;;;;5063890;28;20032;-80
2021/07/30 12:33:40;;;;;;;6.80;3.35;;;26.70;71.90;;;;;;5059773;28;20149;-82
2021/07/30 12:36:08;;;;;;;4.40;3.17;;;26.70;71.70;;;;;;5066720;28;20036;-81
2021/07/30 12:38:50;;;;;;;5.93;2.88;;;26.60;72.10;;;;;;5064927;28;20535;-78
2021/07/30 12:41:21;;;;;;;13.82;4.07;;;26.60;71.60;;;;;;5065642;28;20038;-81
2021/07/30 12:43:47;;;;;;;8.90;3.53;;;26.70;71.50;;;;;;5064375;28;20078;-79
2021/07/30 12:46:32;;;;;;;4.65;3.10;;;26.60;71.30;;;;;;5064187;28;20527;-82
2021/07/30 12:48:58;;;;;;;7.10;3.03;;;26.50;72.10;;;;;;5065555;28;20697;-82
2021/07/30 12:51:25;;;;;;;5.68;3.33;;;26.50;71.50;;;;;;5065296;28;20038;-81